AirNav   Air Wisconsin pilot careers
 
 557 users online  

AL62 Striplin Airfield
Hartford, Alabama, USA

GOING TO HARTFORD?


FAA INFORMATION EFFECTIVE 31 JANUARY 2019

Location

FAA Identifier: AL62
Lat/Long: 31-04-58.6410N / 085-41-00.7590W
31-04.977350N / 085-41.012650W
31.0829558 / -85.6835442
(estimated)
Elevation: 255 ft. / 78 m (estimated)
Variation: 00W (1986)
From city: 2 miles SE of HARTFORD, AL
Time zone: UTC -6 (UTC -5 during Daylight Saving Time)
Zip code: 36344

Airport Operations

Airport use: Private use. Permission required prior to landing
Activation date: 03/1986
Control tower: no
ARTCC: JACKSONVILLE CENTER
FSS: ANNISTON FLIGHT SERVICE STATION
Attendance: CONTINUOUS
Wind indicator: lighted
Segmented circle: no
Lights: MIRL RY 18/36 CALL 205-588-3170.
Beacon: white-green (lighted land airport)
FOR ROTG BCN CALL 205-588-3170. BCN IS STANDARD GREEN & WHITE AT 24 FLASHES PER MINUTE.

Airport Communications

WX AWOS-3PT at EDN (17 nm NW): 118.9 (334-347-3524)
WX ASOS at DHN (19 nm NE): PHONE 334-983-5999

Nearby radio navigation aids

VOR radial/distance  VOR name  Freq  Var
OZRr172/11.4CAIRNS VOR/DME111.2003W
EDNr142/(17.0)ENTERPRISE VOR116.6003W
HEYr188/(17.5)HANCHEY VOR110.6003W
RRSr225/17.7WIREGRASS VORTAC111.6002E
MAIr302/33.8MARIANNA VORTAC114.0000E

 
NDB name  Hdg/Dist  Freq  Var  ID
RUCKR145/10.921203WOZ --- --..
LOWE173/17.026903WLOR .-.. --- .-.
HANCHEY188/17.722103WHYE .... -.-- .
BOLL WEEVIL138/21.735203WBVG -... ...- --.
SOYYA300/26.832902WSMY ... -- -.--
JUDD112/38.726402WJUY .--- ..- -.--

Airport Services

Runway Information

Runway 18/36

Dimensions: 2600 x 80 ft. / 792 x 24 m
Surface: turf
Runway edge lights: medium intensity
Runway edge markings: CONES
RUNWAY 18  RUNWAY 36
Traffic pattern: leftleft
Markings: NSTD
Obstructions: none4 ft. fence, 100 ft. from runway

Airport Ownership and Management from official FAA records

Ownership: Privately-owned
Owner: JAMES R. STRIPLIN, JR.
1260 HARTFORD LAKE RD
HARTFORD, AL 36344
Phone 334-588-3170
Manager: JAMES R. STRIPLIN, JR.
1260 HARTFORD LAKE RD
HARTFORD, AL 36344
Phone 334-588-3170
ADDITIONAL CONTACT: ESTER STRIPLIN 706-761-0614

Airport Operational Statistics

Aircraft based on the field: 4
Single engine airplanes: 3
Multi engine airplanes: 1
    
Aircraft operations: 40/year
100% local general aviation

Additional Remarks

PPR FOR ACFT OVER 12,500 LBS.
OWNER LIVES ON AIRFIELD.

Instrument Procedures

There are no published instrument procedures at AL62.

Some nearby airports with instrument procedures:

33J - Geneva Municipal Airport (10 nm W)
KOZR - Cairns Army Airfield (Fort Rucker) (12 nm N)
1J0 - Tri-County Airport (15 nm S)
KHEY - Hanchey Army Heliport (Fort Rucker) (16 nm N)
KLOR - Lowe Army Heliport (Fort Rucker) (17 nm N)
KEDN - Enterprise Municipal Airport (17 nm NW)
KDHN - Dothan Regional Airport (19 nm NE)
 
Loc | Ops | Rwys | IFR | FBO | Links
Com | Nav | Svcs | Stats | Notes
Area around AL62 (Striplin Airfield)
 
Road maps at: MapQuest Bing Google
 
Aerial photo
WARNING: Photo may not be current or correct
Aerial photo of AL62 (Striplin Airfield)
Photo taken 20-May-2006
looking north

Do you have a better or more recent aerial photo of Striplin Airfield that you would like to share? If so, please send us your photo.

 
Sectional chart

 
Airport distance calculator
Flying to Striplin Airfield? Find the distance to fly.

From to AL62

Sunrise and sunset
Times for 22-Feb-2019
 Local
(UTC-6)
 Zulu
(UTC)
Morning civil twilight05:5411:54
Sunrise06:1812:18
Sunset17:3523:35
Evening civil twilight17:5923:59

Current date and time
Zulu (UTC)  23-Feb-2019 05:35:17
Local (UTC-6)  22-Feb-2019 23:35:17
 
METAR
KOZR 
12nm N 
230456Z AUTO 17004KT 10SM BKN012 BKN100 20/19 A3012 RMK AO2 CIG 012V100 BKN012 V SCT SLP200 T02020194
KHEY 
16nm N 
230458Z AUTO 00000KT 10SM OVC012 20/20 A3012 RMK AO2 OVC V BKN SLP200 T02010198 402610193
KLOR 
16nm N 
230508Z AUTO 00000KT 10SM -RA BKN013 OVC100 20/19 A3012 RMK AO2 RAE00RAB08 SLP181
KEDN 
17nm NW 
230515Z AUTO 17003KT 10SM OVC013 20/20 A3012 RMK AO2 T02000200
KDHN 
18nm NE 
230453Z AUTO 17004KT 10SM OVC100 19/17 A3016 RMK AO2 SLP209 T01940172 402670189
KSXS 
19nm NW 
230458Z AUTO 20004KT 10SM BKN013 OVC100 20/20 A3012 RMK AO2 SLP199 T02030195
TAF
KOZR 
12nm N 
230000Z 2300/2406 15006KT 8000 BR BKN020 QNH3010INS BECMG 2303/2304 17005KT 0800 FG OVC005 510023 QNH3010INS BECMG 2315/2316 18012G18KT 9999 NSW FEW013 BKN025 WS020/18031KT 510013 QNH3007INS BECMG 2317/2318 19015G20KT 9999 SCT016 510013 QNH3002INS BECMG 2323/2324 18009KT 9999 BKN016 510013 QNH3002INS BECMG 2403/2404 18009KT 8000 BR OVC001 510203 QNH3000INS TX28/2300Z TN19/2313Z LAST NO AMDS AFT 2307 NEXT 2312
KDHN 
18nm NE 
221735Z 2218/2318 18008KT P6SM OVC015 FM222000 18010KT P6SM BKN050 FM230800 VRB04KT 1SM BR BKN003 FM231500 13005KT P6SM OVC100
NOTAMs
Click for the latest NOTAMs
NOTAMs are issued by the DoD/FAA and will open in a separate window not controlled by AirNav.

 

 
 

Would you like to see your business listed on this page?

 If your business provides an interesting product or service to pilots, flight crews, aircraft, or users of the Striplin Airfield, you should consider listing it here.  To start the listing process, click on the button below
 
Add a business
 

Other Pages about Striplin Airfield

Update a link
 
Copyright © AirNav, LLC. All rights reserved. Privacy Policy  Contact